createdAt,value
2023-06-09T00:00:47.251Z,5.35
2023-06-09T00:03:17.731Z,5.25
2023-06-09T00:05:48.171Z,5.63
2023-06-09T00:08:16.639Z,5.70
2023-06-09T00:10:44.746Z,5.57
2023-06-09T00:13:12.942Z,6.07
2023-06-09T00:15:41.046Z,5.63
2023-06-09T00:18:10.793Z,5.63
2023-06-09T00:20:39.917Z,5.75
2023-06-09T00:23:09.213Z,5.88
2023-06-09T00:25:37.364Z,6.10
2023-06-09T00:28:05.868Z,6.80
2023-06-09T00:30:39.669Z,6.30
2023-06-09T00:33:09.989Z,6.00
2023-06-09T00:35:38.176Z,6.65
2023-06-09T00:38:06.330Z,6.57
2023-06-09T00:40:34.547Z,7.15
2023-06-09T00:43:02.924Z,6.72
2023-06-09T00:45:31.107Z,6.97
2023-06-09T00:47:59.253Z,6.90
2023-06-09T00:50:28.909Z,7.00
2023-06-09T00:52:58.279Z,6.78
2023-06-09T00:55:28.038Z,7.47
2023-06-09T00:57:58.211Z,7.13
2023-06-09T01:00:28.310Z,7.10
2023-06-09T01:03:01.915Z,6.95
2023-06-09T01:05:33.923Z,7.38
2023-06-09T01:08:08.815Z,7.13
2023-06-09T01:10:43.327Z,7.63
2023-06-09T01:13:17.843Z,7.30
2023-06-09T01:15:54.271Z,7.43
2023-06-09T01:18:26.528Z,7.60
2023-06-09T01:21:07.659Z,7.23
2023-06-09T01:23:45.851Z,7.55
2023-06-09T01:26:17.187Z,7.32
2023-06-09T01:28:48.091Z,7.72
2023-06-09T01:31:17.423Z,7.22
2023-06-09T01:33:46.754Z,7.40
2023-06-09T01:36:16.704Z,7.55
2023-06-09T01:38:45.776Z,7.35
2023-06-09T01:41:15.337Z,7.43
2023-06-09T01:43:43.448Z,7.68
2023-06-09T01:46:11.630Z,7.72
2023-06-09T01:48:58.752Z,8.00
2023-06-09T01:51:36.956Z,8.27
2023-06-09T01:54:10.262Z,7.72
2023-06-09T01:56:45.059Z,7.65
2023-06-09T01:59:17.959Z,7.75
2023-06-09T02:01:48.753Z,8.30
2023-06-09T02:04:19.426Z,8.02
2023-06-09T02:06:48.922Z,7.75
2023-06-09T02:09:17.589Z,7.88
2023-06-09T02:11:53.391Z,7.45
2023-06-09T02:14:21.843Z,7.72
2023-06-09T02:16:54.469Z,7.18
2023-06-09T02:19:23.519Z,7.53
2023-06-09T02:21:51.612Z,7.45
2023-06-09T02:24:19.826Z,7.70
2023-06-09T02:26:52.624Z,7.03
2023-06-09T02:29:20.822Z,7.13
2023-06-09T02:31:49.011Z,7.38
2023-06-09T02:34:17.234Z,7.60
2023-06-09T02:36:45.848Z,7.38
2023-06-09T02:39:15.992Z,7.30
2023-06-09T02:41:44.133Z,6.60
2023-06-09T02:44:13.664Z,7.63
2023-06-09T02:46:41.808Z,7.40
2023-06-09T02:49:10.093Z,6.78
2023-06-09T02:51:38.546Z,7.38
2023-06-09T02:54:06.913Z,7.10
2023-06-09T02:56:35.044Z,6.85
2023-06-09T02:59:03.784Z,6.80
2023-06-09T03:01:36.344Z,6.63
2023-06-09T03:04:07.278Z,7.05
2023-06-09T03:06:36.682Z,7.28
2023-06-09T03:09:05.121Z,6.80
2023-06-09T03:11:33.338Z,7.00
2023-06-09T03:14:01.454Z,6.07
2023-06-09T03:16:30.063Z,6.38
2023-06-09T03:18:59.605Z,5.75
2023-06-09T03:21:27.674Z,5.50
2023-06-09T03:23:55.855Z,5.68
2023-06-09T03:26:25.191Z,5.38
2023-06-09T03:28:54.365Z,5.30
2023-06-09T03:31:23.900Z,4.82
2023-06-09T03:33:52.154Z,4.75
2023-06-09T03:36:23.641Z,4.72
2023-06-09T03:38:52.004Z,4.20
2023-06-09T03:41:20.125Z,4.20
2023-06-09T03:43:48.408Z,4.40
2023-06-09T03:46:16.603Z,4.30
2023-06-09T03:48:44.898Z,4.00
2023-06-09T03:51:13.081Z,4.07
2023-06-09T03:53:42.590Z,3.85
2023-06-09T03:56:11.127Z,3.80
2023-06-09T03:58:39.360Z,3.47
2023-06-09T04:01:11.725Z,3.50
2023-06-09T04:03:40.100Z,3.47
2023-06-09T04:06:08.399Z,3.80
2023-06-09T04:08:37.538Z,3.67
2023-06-09T04:11:06.993Z,3.67
2023-06-09T04:13:36.211Z,3.65
2023-06-09T04:16:04.420Z,3.58
2023-06-09T04:18:32.548Z,3.80
2023-06-09T04:21:00.969Z,3.72
2023-06-09T04:23:29.194Z,3.72
2023-06-09T04:25:57.405Z,3.92
2023-06-09T04:28:28.905Z,3.70
2023-06-09T04:30:58.597Z,3.42
2023-06-09T04:33:27.786Z,3.78
2023-06-09T04:35:56.249Z,3.60
2023-06-09T04:38:25.318Z,3.90
2023-06-09T04:40:53.409Z,3.60
2023-06-09T04:43:26.669Z,3.85
2023-06-09T04:45:58.315Z,4.13
2023-06-09T04:48:26.882Z,4.05
2023-06-09T04:50:55.033Z,4.40
2023-06-09T04:53:23.083Z,4.60
2023-06-09T04:55:53.205Z,4.50
2023-06-09T04:58:21.276Z,4.75
2023-06-09T05:00:49.920Z,5.00
2023-06-09T05:03:19.653Z,5.28
2023-06-09T05:05:48.173Z,5.40
2023-06-09T05:08:16.319Z,5.95
2023-06-09T05:10:44.482Z,5.47
2023-06-09T05:13:12.552Z,5.70
2023-06-09T05:15:43.164Z,5.57
2023-06-09T05:18:11.395Z,5.75
2023-06-09T05:20:40.864Z,5.88
2023-06-09T05:23:09.638Z,6.32
2023-06-09T05:25:38.574Z,6.10
2023-06-09T05:28:06.722Z,6.20
2023-06-09T05:30:34.836Z,6.40
2023-06-09T05:33:03.199Z,7.00
2023-06-09T05:35:31.342Z,6.90
2023-06-09T05:38:00.700Z,7.03
2023-06-09T05:40:28.831Z,7.05
2023-06-09T05:42:56.910Z,7.22
2023-06-09T05:45:25.117Z,6.68
2023-06-09T05:47:53.284Z,6.60
2023-06-09T05:50:21.576Z,6.72
2023-06-09T05:52:49.694Z,6.35
2023-06-09T05:55:19.447Z,6.43
2023-06-09T05:57:47.561Z,6.20
2023-06-09T06:00:16.799Z,6.32
2023-06-09T06:02:46.148Z,6.70
2023-06-09T06:05:15.126Z,6.30
2023-06-09T06:07:43.382Z,5.93
2023-06-09T06:10:12.058Z,6.40
2023-06-09T06:12:43.151Z,5.50
2023-06-09T06:15:13.850Z,5.65
2023-06-09T06:17:42.715Z,5.05
2023-06-09T06:20:13.147Z,4.78
2023-06-09T06:22:42.684Z,4.97
2023-06-09T06:25:14.645Z,5.03
2023-06-09T06:27:46.275Z,4.70
2023-06-09T06:30:16.926Z,4.78
2023-06-09T06:32:51.555Z,4.90
2023-06-09T06:35:27.520Z,4.68
2023-06-09T06:37:56.124Z,4.65
2023-06-09T06:40:24.484Z,4.60
2023-06-09T06:42:54.072Z,4.50
2023-06-09T06:45:23.745Z,4.70
2023-06-09T06:47:52.846Z,4.40
2023-06-09T06:50:24.723Z,4.72
2023-06-09T06:52:54.021Z,4.88
2023-06-09T06:55:22.165Z,4.38
2023-06-09T06:57:50.288Z,4.18
2023-06-09T07:00:20.425Z,4.05
2023-06-09T07:02:49.380Z,4.30
2023-06-09T07:05:18.763Z,4.13
2023-06-09T07:07:47.120Z,4.15
2023-06-09T07:10:16.489Z,3.97
2023-06-09T07:12:44.754Z,3.90
2023-06-09T07:15:15.860Z,3.50
2023-06-09T07:17:45.715Z,3.60
2023-06-09T07:20:14.091Z,3.85
2023-06-09T07:22:42.821Z,3.45
2023-06-09T07:25:11.714Z,3.17
2023-06-09T07:27:40.134Z,3.40
2023-06-09T07:30:10.977Z,3.58
2023-06-09T07:32:42.593Z,2.90
2023-06-09T07:35:13.936Z,3.22
2023-06-09T07:37:43.617Z,3.10
2023-06-09T07:40:20.367Z,3.25
2023-06-09T07:42:50.099Z,3.08
2023-06-09T07:45:18.545Z,3.08
2023-06-09T07:47:46.879Z,3.00
2023-06-09T07:50:16.757Z,2.88
2023-06-09T07:52:44.878Z,2.97
2023-06-09T07:55:15.634Z,2.47
2023-06-09T07:57:45.032Z,2.72
2023-06-09T08:00:15.059Z,3.00
2023-06-09T08:02:44.454Z,2.75
2023-06-09T08:05:13.052Z,2.83
2023-06-09T08:07:42.592Z,2.70
2023-06-09T08:10:11.594Z,2.85
2023-06-09T08:12:40.200Z,2.80
2023-06-09T08:15:12.405Z,2.60
2023-06-09T08:17:41.135Z,2.72
2023-06-09T08:20:10.198Z,2.50
2023-06-09T08:22:38.492Z,2.58
2023-06-09T08:25:12.619Z,2.80
2023-06-09T08:27:40.817Z,2.67
2023-06-09T08:30:10.418Z,2.35
2023-06-09T08:32:40.810Z,2.65
2023-06-09T08:35:09.814Z,2.70
2023-06-09T08:37:38.519Z,2.47
2023-06-09T08:40:10.029Z,2.50
2023-06-09T08:42:40.565Z,2.72
2023-06-09T08:45:10.217Z,2.20
2023-06-09T08:47:45.809Z,2.80
2023-06-09T08:50:17.696Z,2.55
2023-06-09T08:52:46.606Z,2.38
2023-06-09T08:55:15.578Z,2.47
2023-06-09T08:57:45.170Z,2.33
2023-06-09T09:00:14.243Z,2.40
2023-06-09T09:02:44.382Z,2.50
2023-06-09T09:05:12.645Z,2.40
2023-06-09T09:07:46.263Z,2.10
2023-06-09T09:10:14.627Z,2.22
2023-06-09T09:12:51.848Z,2.50
2023-06-09T09:15:20.738Z,2.60
2023-06-09T09:17:49.683Z,2.30
2023-06-09T09:20:18.243Z,2.28
2023-06-09T09:22:48.518Z,2.40
2023-06-09T09:25:23.766Z,2.50
2023-06-09T09:28:07.470Z,2.28
2023-06-09T09:30:49.594Z,2.35
2023-06-09T09:33:21.733Z,2.20
2023-06-09T09:35:51.869Z,2.25
2023-06-09T09:38:22.234Z,2.50
2023-06-09T09:40:52.378Z,2.15
2023-06-09T09:43:23.119Z,2.50
2023-06-09T09:45:53.465Z,2.10
2023-06-09T09:48:24.294Z,2.47
2023-06-09T09:50:54.388Z,2.30
2023-06-09T09:53:23.595Z,2.10
2023-06-09T09:55:54.578Z,2.33
2023-06-09T09:58:31.439Z,2.08
2023-06-09T10:01:02.022Z,2.33
2023-06-09T10:03:30.657Z,2.63
2023-06-09T10:06:03.036Z,2.40
2023-06-09T10:08:32.570Z,2.30
2023-06-09T10:11:02.249Z,2.40
2023-06-09T10:13:31.971Z,2.17
2023-06-09T10:16:00.964Z,2.10
2023-06-09T10:18:29.290Z,2.15
2023-06-09T10:20:57.907Z,2.40
2023-06-09T10:23:26.562Z,2.20
2023-06-09T10:25:54.664Z,2.13
2023-06-09T10:28:22.966Z,2.22
2023-06-09T10:30:52.746Z,2.20
2023-06-09T10:33:24.177Z,2.17
2023-06-09T10:35:57.475Z,2.30
2023-06-09T10:38:29.660Z,2.10
2023-06-09T10:41:10.959Z,2.43
2023-06-09T10:44:08.397Z,2.05
2023-06-09T10:46:43.489Z,2.45
2023-06-09T10:49:37.808Z,2.30
2023-06-09T10:52:07.091Z,2.55
2023-06-09T10:54:36.777Z,2.40
2023-06-09T10:57:08.008Z,2.60
2023-06-09T11:00:17.572Z,2.60
2023-06-09T11:02:54.837Z,2.80
2023-06-09T11:05:23.275Z,2.65
2023-06-09T11:07:53.579Z,2.50
2023-06-09T11:10:30.518Z,2.10
2023-06-09T11:12:59.225Z,2.63
2023-06-09T11:15:58.887Z,2.90
2023-06-09T11:18:29.698Z,2.55
2023-06-09T11:21:13.099Z,3.42
2023-06-09T11:24:02.560Z,2.83
2023-06-09T11:26:31.897Z,2.70
2023-06-09T11:29:00.434Z,2.83
2023-06-09T11:31:29.356Z,2.90
2023-06-09T11:33:59.380Z,2.92
2023-06-09T11:36:31.738Z,3.10
2023-06-09T11:39:08.560Z,3.00
2023-06-09T11:41:36.860Z,2.97
2023-06-09T11:44:05.190Z,2.75
2023-06-09T11:46:36.970Z,2.60
2023-06-09T11:49:08.947Z,2.78
2023-06-09T11:51:59.581Z,2.88
2023-06-09T11:54:49.038Z,2.70
2023-06-09T11:57:20.528Z,2.88
2023-06-09T11:59:48.825Z,2.63
2023-06-09T12:02:19.208Z,2.88
2023-06-09T12:04:50.292Z,2.80
2023-06-09T12:07:20.059Z,2.50
2023-06-09T12:09:59.402Z,2.88
2023-06-09T12:12:27.582Z,2.60
2023-06-09T12:14:55.789Z,2.90
2023-06-09T12:17:24.992Z,2.92
2023-06-09T12:19:57.349Z,2.88
2023-06-09T12:22:25.607Z,2.75
2023-06-09T12:24:53.676Z,3.05
2023-06-09T12:27:24.011Z,2.78
2023-06-09T12:29:53.819Z,2.78
2023-06-09T12:32:25.454Z,3.22
2023-06-09T12:35:02.635Z,2.80
2023-06-09T12:37:38.142Z,2.80
2023-06-09T12:40:10.424Z,3.17
2023-06-09T12:42:48.925Z,2.88
2023-06-09T12:45:17.199Z,2.80
2023-06-09T12:47:49.597Z,2.70
2023-06-09T12:50:19.224Z,2.67
2023-06-09T12:52:47.411Z,2.90
2023-06-09T12:55:17.967Z,3.10
2023-06-09T12:57:46.205Z,2.83
2023-06-09T13:00:21.850Z,2.83
2023-06-09T13:02:51.820Z,2.60
2023-06-09T13:05:22.656Z,2.95
2023-06-09T13:07:50.888Z,2.80
2023-06-09T13:10:19.010Z,2.65
2023-06-09T13:12:51.856Z,2.70
2023-06-09T13:15:21.331Z,2.95
2023-06-09T13:17:49.690Z,2.75
2023-06-09T13:20:23.323Z,3.08
2023-06-09T13:22:52.896Z,2.85
2023-06-09T13:25:21.172Z,2.92
2023-06-09T13:27:49.295Z,2.90
2023-06-09T13:30:17.425Z,2.90
2023-06-09T13:32:45.636Z,2.83
2023-06-09T13:35:15.376Z,2.78
2023-06-09T13:37:45.050Z,3.00
2023-06-09T13:40:13.657Z,3.35
2023-06-09T13:42:43.660Z,3.00
2023-06-09T13:45:12.056Z,3.05
2023-06-09T13:47:40.297Z,2.90
2023-06-09T13:50:09.135Z,2.88
2023-06-09T13:52:38.906Z,3.10
2023-06-09T13:55:09.801Z,2.80
2023-06-09T13:57:38.666Z,2.95
2023-06-09T14:00:08.386Z,2.63
2023-06-09T14:02:37.221Z,2.47
2023-06-09T14:05:06.092Z,2.67
2023-06-09T14:07:34.573Z,2.88
2023-06-09T14:10:04.419Z,2.78
2023-06-09T14:12:34.192Z,2.40
2023-06-09T14:15:02.844Z,2.88
2023-06-09T14:17:31.113Z,2.50
2023-06-09T14:19:59.333Z,2.85
2023-06-09T14:22:27.444Z,2.80
2023-06-09T14:24:55.653Z,2.60
2023-06-09T14:27:23.744Z,2.88
2023-06-09T14:29:53.393Z,2.53
2023-06-09T14:32:21.613Z,2.65
2023-06-09T14:34:49.837Z,2.80
2023-06-09T14:37:18.030Z,2.50
2023-06-09T14:39:46.186Z,2.70
2023-06-09T14:42:14.384Z,2.65
2023-06-09T14:44:42.524Z,2.63
2023-06-09T14:47:12.009Z,2.95
2023-06-09T14:49:40.545Z,2.90
2023-06-09T14:52:08.901Z,2.60
2023-06-09T14:54:37.610Z,2.90
2023-06-09T14:57:06.947Z,2.35
2023-06-09T14:59:35.273Z,2.35
2023-06-09T15:02:03.378Z,2.88
2023-06-09T15:04:32.840Z,3.00
2023-06-09T15:07:01.002Z,2.83
2023-06-09T15:09:29.134Z,2.70
2023-06-09T15:11:57.306Z,2.63
2023-06-09T15:14:25.393Z,2.70
2023-06-09T15:16:53.536Z,2.90
2023-06-09T15:19:21.665Z,3.00
2023-06-09T15:21:56.137Z,2.92
2023-06-09T15:24:32.369Z,2.90
2023-06-09T15:27:00.444Z,2.83
2023-06-09T15:29:30.024Z,2.80
2023-06-09T15:31:58.595Z,2.80
2023-06-09T15:34:26.702Z,2.97
2023-06-09T15:36:56.222Z,2.95
2023-06-09T15:39:24.358Z,2.88
2023-06-09T15:41:52.521Z,3.08
2023-06-09T15:44:20.602Z,2.90
2023-06-09T15:46:48.778Z,2.90
2023-06-09T15:49:16.945Z,2.97
2023-06-09T15:51:45.055Z,2.90
2023-06-09T15:54:14.602Z,2.75
2023-06-09T15:56:42.852Z,2.85
2023-06-09T15:59:10.971Z,2.90
2023-06-09T16:01:39.194Z,3.08
2023-06-09T16:04:07.911Z,2.80
2023-06-09T16:06:36.109Z,2.80
2023-06-09T16:09:06.602Z,2.80
2023-06-09T16:11:36.379Z,2.90
2023-06-09T16:14:04.455Z,2.85
2023-06-09T16:16:32.645Z,2.67
2023-06-09T16:19:01.071Z,2.70
2023-06-09T16:21:29.217Z,2.95
2023-06-09T16:23:57.440Z,2.88
2023-06-09T16:26:28.319Z,2.90
2023-06-09T16:28:57.963Z,2.70
2023-06-09T16:31:27.136Z,3.00
2023-06-09T16:33:55.532Z,2.45
2023-06-09T16:36:23.701Z,2.75
2023-06-09T16:38:51.860Z,2.90
2023-06-09T16:41:19.951Z,2.75
2023-06-09T16:43:48.206Z,2.90
2023-06-09T16:46:18.025Z,3.05
2023-06-09T16:48:46.323Z,2.90
2023-06-09T16:51:14.946Z,2.70
2023-06-09T16:53:43.237Z,2.88
2023-06-09T16:56:11.409Z,2.60
2023-06-09T16:58:39.592Z,2.75
2023-06-09T17:01:07.767Z,2.70
2023-06-09T17:03:37.659Z,3.05
2023-06-09T17:06:06.069Z,2.70
2023-06-09T17:08:34.814Z,2.85
2023-06-09T17:11:03.114Z,2.65
2023-06-09T17:13:31.289Z,2.83
2023-06-09T17:16:00.727Z,2.88
2023-06-09T17:18:28.823Z,3.03
2023-06-09T17:20:58.367Z,2.80
2023-06-09T17:23:26.874Z,2.50
2023-06-09T17:25:55.004Z,2.63
2023-06-09T17:28:23.449Z,2.53
2023-06-09T17:30:51.689Z,2.88
2023-06-09T17:33:20.696Z,2.70
2023-06-09T17:35:49.404Z,3.03
2023-06-09T17:38:18.988Z,2.60
2023-06-09T17:40:47.614Z,2.70
2023-06-09T17:43:19.125Z,2.90
2023-06-09T17:45:48.227Z,2.60
2023-06-09T17:48:16.820Z,2.70
2023-06-09T17:50:45.393Z,2.60
2023-06-09T17:53:13.831Z,2.85
2023-06-09T17:55:43.536Z,2.85
2023-06-09T17:58:13.029Z,2.72
2023-06-09T18:00:41.288Z,2.83
2023-06-09T18:03:09.743Z,2.75
2023-06-09T18:05:38.222Z,2.72
2023-06-09T18:08:06.658Z,3.28
2023-06-09T18:10:34.955Z,3.03
2023-06-09T18:13:05.485Z,2.92
2023-06-09T18:15:34.100Z,2.92
2023-06-09T18:18:02.274Z,2.95
2023-06-09T18:20:30.484Z,2.70
2023-06-09T18:22:58.654Z,2.78
2023-06-09T18:25:28.296Z,3.35
2023-06-09T18:27:58.706Z,3.50
2023-06-09T18:30:29.728Z,3.00
2023-06-09T18:32:57.956Z,3.75
2023-06-09T18:35:26.269Z,3.00
2023-06-09T18:37:54.516Z,3.28
2023-06-09T18:40:22.666Z,3.10
2023-06-09T18:42:51.229Z,3.17
2023-06-09T18:45:19.548Z,3.40
2023-06-09T18:47:49.050Z,3.53
2023-06-09T18:50:20.520Z,3.20
2023-06-09T18:52:48.858Z,3.13
2023-06-09T18:55:17.378Z,3.58
2023-06-09T18:57:45.492Z,3.35
2023-06-09T19:00:14.753Z,3.30
2023-06-09T19:02:42.927Z,3.40
2023-06-09T19:05:13.114Z,3.20
2023-06-09T19:07:41.484Z,3.47
2023-06-09T19:10:10.430Z,3.63
2023-06-09T19:12:39.199Z,3.15
2023-06-09T19:15:08.560Z,3.50
2023-06-09T19:17:37.065Z,3.80
2023-06-09T19:20:06.068Z,3.70
2023-06-09T19:22:35.778Z,3.75
2023-06-09T19:25:04.139Z,3.42
2023-06-09T19:27:32.423Z,3.33
2023-06-09T19:30:00.603Z,3.53
2023-06-09T19:32:29.325Z,3.38
2023-06-09T19:34:57.793Z,3.20
2023-06-09T19:37:26.028Z,3.30
2023-06-09T19:39:56.075Z,3.47
2023-06-09T19:42:25.573Z,3.38
2023-06-09T19:44:53.968Z,3.40
2023-06-09T19:47:22.723Z,3.20
2023-06-09T19:49:51.347Z,3.40
2023-06-09T19:52:19.561Z,3.28
2023-06-09T19:54:54.259Z,3.13
2023-06-09T19:57:23.916Z,3.25
2023-06-09T19:59:52.161Z,3.15
2023-06-09T20:02:20.608Z,3.20
2023-06-09T20:04:49.042Z,3.20
2023-06-09T20:07:17.260Z,2.97
2023-06-09T20:09:45.378Z,2.80
2023-06-09T20:12:13.490Z,3.17
2023-06-09T20:14:42.943Z,3.10
2023-06-09T20:17:11.110Z,3.30
2023-06-09T20:19:40.786Z,3.15
2023-06-09T20:22:10.726Z,3.40
2023-06-09T20:24:38.839Z,2.78
2023-06-09T20:27:07.745Z,3.00
2023-06-09T20:29:36.174Z,2.90
2023-06-09T20:32:06.469Z,2.85
2023-06-09T20:34:34.620Z,2.88
2023-06-09T20:37:03.861Z,3.42
2023-06-09T20:39:31.913Z,2.70
2023-06-09T20:42:00.114Z,2.83
2023-06-09T20:44:28.304Z,2.72
2023-06-09T20:46:56.903Z,2.72
2023-06-09T20:49:26.409Z,2.80
2023-06-09T20:51:54.542Z,2.90
2023-06-09T20:54:23.575Z,2.70
2023-06-09T20:56:51.725Z,2.85
2023-06-09T20:59:20.014Z,2.90
2023-06-09T21:01:48.230Z,2.78
2023-06-09T21:04:16.981Z,2.60
2023-06-09T21:06:47.246Z,2.58
2023-06-09T21:09:15.442Z,2.80
2023-06-09T21:11:44.431Z,3.20
2023-06-09T21:14:12.544Z,2.83
2023-06-09T21:16:43.982Z,2.72
2023-06-09T21:19:12.717Z,2.83
2023-06-09T21:21:40.847Z,2.83
2023-06-09T21:24:10.566Z,2.83
2023-06-09T21:26:38.734Z,2.50
2023-06-09T21:29:06.859Z,2.88
2023-06-09T21:31:35.325Z,2.92
2023-06-09T21:34:04.523Z,2.90
2023-06-09T21:36:32.833Z,2.95
2023-06-09T21:39:01.153Z,3.10
2023-06-09T21:41:30.608Z,2.88
2023-06-09T21:43:58.660Z,2.80
2023-06-09T21:46:26.852Z,3.03
2023-06-09T21:48:55.154Z,2.53
2023-06-09T21:51:23.231Z,3.05
2023-06-09T21:53:51.277Z,3.10
2023-06-09T21:56:19.342Z,2.97
2023-06-09T21:58:48.924Z,2.97
2023-06-09T22:01:19.570Z,3.20
2023-06-09T22:03:47.901Z,2.90
2023-06-09T22:06:16.220Z,2.72
2023-06-09T22:08:44.411Z,2.92
2023-06-09T22:11:12.644Z,2.97
2023-06-09T22:13:41.396Z,3.22
2023-06-09T22:16:11.039Z,3.00
2023-06-09T22:18:39.168Z,2.97
2023-06-09T22:21:07.257Z,2.90
2023-06-09T22:23:35.484Z,3.10
2023-06-09T22:26:03.690Z,3.10
2023-06-09T22:28:31.772Z,3.00
2023-06-09T22:30:59.941Z,3.03
2023-06-09T22:33:29.636Z,3.05
2023-06-09T22:35:57.766Z,3.00
2023-06-09T22:38:26.000Z,3.20
2023-06-09T22:40:54.099Z,2.90
2023-06-09T22:43:22.211Z,2.97
2023-06-09T22:45:51.144Z,3.20
2023-06-09T22:48:20.880Z,2.95
2023-06-09T22:50:50.354Z,3.10
2023-06-09T22:53:18.428Z,3.45
2023-06-09T22:55:46.738Z,3.38
2023-06-09T22:58:14.906Z,3.40
2023-06-09T23:00:42.990Z,3.40
2023-06-09T23:03:11.221Z,3.10
2023-06-09T23:05:41.790Z,3.30
2023-06-09T23:08:11.397Z,3.10
2023-06-09T23:10:39.537Z,3.40
2023-06-09T23:13:07.922Z,3.10
2023-06-09T23:15:36.572Z,3.20
2023-06-09T23:18:06.138Z,3.17
2023-06-09T23:20:36.189Z,3.65
2023-06-09T23:23:04.616Z,3.08
2023-06-09T23:25:34.637Z,3.22
2023-06-09T23:28:03.143Z,3.35
2023-06-09T23:30:32.010Z,3.50
2023-06-09T23:33:00.174Z,3.30
2023-06-09T23:35:28.277Z,3.22
2023-06-09T23:37:56.404Z,3.20
2023-06-09T23:40:24.602Z,3.78
2023-06-09T23:42:54.074Z,3.20
2023-06-09T23:45:22.172Z,3.50
2023-06-09T23:47:50.471Z,3.47
2023-06-09T23:50:18.623Z,3.38
2023-06-09T23:52:47.433Z,3.50
2023-06-09T23:55:15.799Z,3.20
2023-06-09T23:57:43.861Z,3.42
